createdAt,value
2019-04-20T00:00:10.933Z,0.00
2019-04-20T00:01:12.617Z,0.00
2019-04-20T00:02:14.336Z,0.00
2019-04-20T00:03:09.665Z,0.00
2019-04-20T00:04:17.018Z,0.00
2019-04-20T00:05:09.398Z,0.00
2019-04-20T00:06:09.525Z,0.00
2019-04-20T00:07:10.180Z,0.00
2019-04-20T00:08:16.679Z,0.00
2019-04-20T00:09:15.953Z,0.00
2019-04-20T00:10:15.061Z,0.00
2019-04-20T00:11:16.346Z,0.00
2019-04-20T00:12:18.057Z,0.00
2019-04-20T00:13:22.963Z,0.00
2019-04-20T00:14:16.200Z,0.00
2019-04-20T00:15:09.560Z,0.00
2019-04-20T00:16:10.262Z,0.00
2019-04-20T00:17:09.633Z,0.00
2019-04-20T00:18:11.430Z,0.00
2019-04-20T00:19:10.657Z,0.00
2019-04-20T00:20:16.417Z,0.00
2019-04-20T00:21:14.117Z,0.00
2019-04-20T00:22:12.326Z,0.00
2019-04-20T00:23:13.481Z,0.00
2019-04-20T00:24:16.686Z,0.00
2019-04-20T00:25:15.503Z,0.00
2019-04-20T00:26:17.338Z,0.00
2019-04-20T00:27:32.748Z,0.00
2019-04-20T00:28:31.930Z,0.00
2019-04-20T00:29:32.206Z,0.00
2019-04-20T00:30:31.494Z,0.00
2019-04-20T00:31:26.736Z,0.00
2019-04-20T00:32:22.102Z,0.00
2019-04-20T00:33:27.128Z,0.00
2019-04-20T00:34:18.087Z,0.00
2019-04-20T00:35:10.448Z,0.00
2019-04-20T00:36:10.221Z,0.00
2019-04-20T00:37:10.894Z,0.00
2019-04-20T00:38:11.720Z,0.00
2019-04-20T00:39:13.199Z,0.00
2019-04-20T00:40:10.380Z,0.00
2019-04-20T00:41:13.725Z,0.00
2019-04-20T00:42:13.328Z,0.00
2019-04-20T00:43:13.028Z,0.00
2019-04-20T00:44:18.668Z,0.00
2019-04-20T00:45:19.086Z,0.00
2019-04-20T00:46:19.620Z,0.00
2019-04-20T00:47:20.061Z,0.00
2019-04-20T00:48:22.445Z,0.00
2019-04-20T00:49:25.363Z,0.00
2019-04-20T00:50:28.345Z,0.00
2019-04-20T00:51:39.458Z,0.00
2019-04-20T00:52:29.218Z,0.00
2019-04-20T00:53:21.601Z,0.00
2019-04-20T00:55:10.879Z,0.00
2019-04-20T00:56:11.922Z,0.00
2019-04-20T00:57:20.314Z,0.00
2019-04-20T00:58:20.190Z,0.00
2019-04-20T00:59:25.569Z,0.00
2019-04-20T01:00:26.876Z,0.00
2019-04-20T01:01:31.027Z,0.00
2019-04-20T01:02:27.544Z,0.00
2019-04-20T01:03:32.407Z,0.00
2019-04-20T01:04:32.829Z,0.00
2019-04-20T01:05:23.296Z,0.00
2019-04-20T01:06:26.939Z,0.00
2019-04-20T01:07:20.308Z,0.00
2019-04-20T01:08:11.403Z,0.00
2019-04-20T01:09:11.919Z,0.00
2019-04-20T01:10:11.320Z,0.00
2019-04-20T01:11:12.319Z,0.00
2019-04-20T01:12:16.428Z,0.00
2019-04-20T01:13:15.551Z,0.00
2019-04-20T01:14:14.082Z,0.00
2019-04-20T01:15:23.108Z,0.00
2019-04-20T01:16:25.719Z,0.00
2019-04-20T01:17:13.268Z,0.00
2019-04-20T01:18:14.046Z,0.00
2019-04-20T01:19:11.686Z,0.00
2019-04-20T01:20:11.697Z,0.00
2019-04-20T01:21:16.517Z,0.00
2019-04-20T01:22:15.862Z,0.00
2019-04-20T01:23:16.002Z,0.00
2019-04-20T01:24:20.171Z,0.00
2019-04-20T01:25:18.202Z,0.00
2019-04-20T01:26:16.371Z,0.00
2019-04-20T01:27:29.536Z,0.00
2019-04-20T01:28:27.716Z,0.00
2019-04-20T01:29:21.838Z,0.00
2019-04-20T01:30:21.049Z,0.00
2019-04-20T01:31:21.912Z,0.00
2019-04-20T01:32:23.221Z,0.00
2019-04-20T01:33:27.099Z,0.00
2019-04-20T01:34:26.705Z,0.00
2019-04-20T01:35:32.026Z,0.00
2019-04-20T01:36:30.774Z,0.00
2019-04-20T01:37:28.441Z,0.00
2019-04-20T01:38:26.227Z,0.00
2019-04-20T01:39:20.587Z,0.00
2019-04-20T01:40:13.122Z,0.00
2019-04-20T01:41:12.340Z,0.00
2019-04-20T01:42:13.085Z,0.00
2019-04-20T01:43:12.446Z,0.00
2019-04-20T01:44:13.438Z,0.00
2019-04-20T01:45:19.400Z,0.00
2019-04-20T01:46:17.093Z,0.00
2019-04-20T01:47:13.350Z,0.00
2019-04-20T01:48:14.178Z,0.00
2019-04-20T01:49:18.285Z,0.00
2019-04-20T01:50:16.775Z,0.00
2019-04-20T01:51:20.766Z,0.00
2019-04-20T01:52:20.099Z,0.00
2019-04-20T01:53:23.599Z,0.00
2019-04-20T01:54:26.087Z,0.00
2019-04-20T01:55:28.831Z,0.00
2019-04-20T01:56:27.492Z,0.00
2019-04-20T01:57:19.979Z,0.00
2019-04-20T01:58:37.701Z,0.00
2019-04-20T01:59:24.176Z,0.00
2019-04-20T02:00:22.627Z,0.00
2019-04-20T02:01:19.450Z,0.00
2019-04-20T02:02:16.553Z,0.00
2019-04-20T02:03:13.396Z,0.00
2019-04-20T02:04:20.297Z,0.00
2019-04-20T02:05:20.738Z,0.00
2019-04-20T02:06:17.895Z,0.00
2019-04-20T02:07:13.646Z,0.00
2019-04-20T02:08:18.351Z,0.00
2019-04-20T02:09:18.645Z,0.00
2019-04-20T02:10:16.516Z,0.00
2019-04-20T02:11:20.763Z,0.00
2019-04-20T02:12:19.088Z,0.00
2019-04-20T02:13:13.362Z,0.00
2019-04-20T02:14:18.928Z,0.00
2019-04-20T02:15:24.211Z,0.00
2019-04-20T02:16:22.632Z,0.00
2019-04-20T02:17:21.342Z,0.00
2019-04-20T02:18:29.736Z,0.00
2019-04-20T02:19:32.013Z,0.00
2019-04-20T02:20:36.287Z,0.00
2019-04-20T02:21:31.683Z,0.00
2019-04-20T02:22:34.217Z,0.00
2019-04-20T02:23:25.295Z,0.00
2019-04-20T02:24:15.703Z,0.00
2019-04-20T02:25:14.199Z,0.00
2019-04-20T02:26:14.274Z,0.00
2019-04-20T02:27:14.755Z,0.00
2019-04-20T02:28:27.716Z,0.00
2019-04-20T02:29:35.065Z,0.00
2019-04-20T02:30:53.889Z,0.00
2019-04-20T02:32:01.524Z,0.00
2019-04-20T02:32:47.198Z,0.00
2019-04-20T02:33:48.873Z,0.00
2019-04-20T02:35:56.108Z,0.00
2019-04-20T02:36:58.864Z,0.00
2019-04-20T02:37:56.879Z,0.00
2019-04-20T02:39:54.287Z,0.00
2019-04-20T02:40:54.506Z,0.00
2019-04-20T02:41:50.983Z,0.00
2019-04-20T02:44:03.490Z,0.00
2019-04-20T02:44:49.906Z,0.00
2019-04-20T02:45:45.370Z,0.00
2019-04-20T02:46:51.080Z,0.00
2019-04-20T02:47:50.566Z,0.00
2019-04-20T02:48:58.610Z,0.00
2019-04-20T02:50:00.237Z,0.00
2019-04-20T02:50:43.709Z,0.00
2019-04-20T02:51:46.965Z,0.00
2019-04-20T02:52:56.848Z,0.00
2019-04-20T02:54:05.823Z,0.00
2019-04-20T02:54:46.743Z,0.00
2019-04-20T02:55:53.455Z,0.00
2019-04-20T02:56:57.425Z,0.00
2019-04-20T02:57:53.013Z,0.00
2019-04-20T02:58:41.842Z,0.00
2019-04-20T03:00:03.266Z,0.00
2019-04-20T03:00:39.621Z,0.00
2019-04-20T03:01:36.141Z,0.00
2019-04-20T03:02:33.556Z,0.00
2019-04-20T03:03:26.460Z,0.00
2019-04-20T03:04:25.784Z,0.00
2019-04-20T03:05:28.123Z,0.00
2019-04-20T03:06:26.358Z,0.00
2019-04-20T03:07:32.962Z,0.00
2019-04-20T03:08:33.102Z,0.00
2019-04-20T03:09:36.863Z,0.00
2019-04-20T03:10:42.267Z,0.00
2019-04-20T03:11:48.203Z,0.00
2019-04-20T03:12:38.637Z,0.00
2019-04-20T03:13:39.673Z,0.00
2019-04-20T03:14:30.257Z,0.00
2019-04-20T03:15:40.131Z,0.00
2019-04-20T03:16:32.357Z,0.00
2019-04-20T03:17:38.759Z,0.00
2019-04-20T03:19:28.951Z,0.00
2019-04-20T03:20:36.548Z,0.00
2019-04-20T03:21:37.599Z,0.00
2019-04-20T03:22:59.930Z,0.00
2019-04-20T03:23:45.837Z,0.00
2019-04-20T03:24:54.431Z,0.00
2019-04-20T03:25:36.079Z,0.00
2019-04-20T03:26:32.998Z,0.00
2019-04-20T03:27:33.152Z,0.00
2019-04-20T03:28:37.327Z,0.00
2019-04-20T03:29:37.298Z,0.00
2019-04-20T03:31:15.713Z,0.00
2019-04-20T03:31:54.374Z,0.00
2019-04-20T03:34:05.658Z,0.00
2019-04-20T03:35:03.709Z,0.00
2019-04-20T03:35:43.456Z,0.00
2019-04-20T03:36:42.869Z,0.00
2019-04-20T03:37:52.585Z,0.00
2019-04-20T03:38:37.176Z,0.00
2019-04-20T03:39:31.343Z,0.00
2019-04-20T03:40:32.484Z,0.00
2019-04-20T03:41:24.452Z,0.00
2019-04-20T03:42:16.256Z,0.00
2019-04-20T03:43:16.299Z,0.00
2019-04-20T03:44:20.945Z,0.00
2019-04-20T03:45:19.979Z,0.00
2019-04-20T03:46:19.850Z,0.00
2019-04-20T03:47:26.637Z,0.00
2019-04-20T03:48:38.128Z,0.00
2019-04-20T03:49:46.979Z,0.00
2019-04-20T03:50:45.429Z,0.00
2019-04-20T03:51:45.346Z,0.00
2019-04-20T03:52:33.009Z,0.00
2019-04-20T03:53:37.971Z,0.00
2019-04-20T03:54:31.869Z,0.00
2019-04-20T03:55:36.910Z,0.00
2019-04-20T03:56:40.147Z,0.00
2019-04-20T03:57:38.315Z,0.00
2019-04-20T03:58:33.494Z,0.00
2019-04-20T03:59:39.157Z,0.00
2019-04-20T04:00:36.189Z,0.00
2019-04-20T04:02:47.937Z,0.00
2019-04-20T04:03:53.547Z,0.00
2019-04-20T04:04:38.846Z,0.00
2019-04-20T04:05:32.392Z,4.00
2019-04-20T04:06:26.339Z,4.00
2019-04-20T04:07:26.847Z,0.00
2019-04-20T04:08:27.718Z,4.00
2019-04-20T04:09:30.511Z,4.00
2019-04-20T04:10:31.615Z,4.00
2019-04-20T04:11:35.473Z,8.00
2019-04-20T04:12:25.670Z,8.00
2019-04-20T04:13:18.597Z,8.00
2019-04-20T04:14:17.742Z,12.00
2019-04-20T04:15:17.298Z,12.00
2019-04-20T04:16:21.576Z,12.00
2019-04-20T04:17:21.315Z,16.00
2019-04-20T04:19:23.155Z,20.00
2019-04-20T04:20:19.707Z,20.00
2019-04-20T04:21:27.118Z,24.00
2019-04-20T04:22:31.237Z,32.00
2019-04-20T04:23:35.764Z,32.00
2019-04-20T04:24:29.619Z,36.00
2019-04-20T04:25:28.763Z,44.00
2019-04-20T04:26:34.096Z,48.00
2019-04-20T04:27:37.022Z,52.00
2019-04-20T04:28:35.246Z,56.00
2019-04-20T04:29:40.128Z,64.00
2019-04-20T04:30:30.590Z,68.00
2019-04-20T04:31:37.616Z,76.00
2019-04-20T04:33:04.114Z,84.00
2019-04-20T04:33:53.241Z,92.00
2019-04-20T04:34:38.908Z,96.00
2019-04-20T04:35:31.375Z,108.00
2019-04-20T04:36:37.564Z,116.00
2019-04-20T04:37:37.646Z,124.00
2019-04-20T04:38:46.501Z,132.00
2019-04-20T04:39:40.668Z,140.00
2019-04-20T04:41:36.363Z,164.00
2019-04-20T04:42:42.095Z,172.00
2019-04-20T04:43:38.953Z,184.00
2019-04-20T04:44:30.224Z,192.00
2019-04-20T04:45:22.205Z,204.00
2019-04-20T04:46:18.584Z,212.00
2019-04-20T04:47:19.736Z,220.00
2019-04-20T04:48:25.215Z,236.00
2019-04-20T04:49:26.325Z,244.00
2019-04-20T04:50:24.527Z,252.00
2019-04-20T04:51:23.990Z,264.00
2019-04-20T04:52:29.407Z,276.00
2019-04-20T04:53:31.226Z,288.00
2019-04-20T04:54:30.450Z,296.00
2019-04-20T04:55:31.198Z,308.00
2019-04-20T04:56:21.864Z,320.00
2019-04-20T04:57:20.054Z,328.00
2019-04-20T04:58:19.536Z,340.00
2019-04-20T04:59:19.305Z,352.00
2019-04-20T05:00:24.650Z,364.00
2019-04-20T05:01:25.122Z,372.00
2019-04-20T05:02:23.632Z,384.00
2019-04-20T05:03:37.588Z,396.00
2019-04-20T05:04:46.089Z,404.00
2019-04-20T05:05:35.925Z,416.00
2019-04-20T05:06:33.205Z,428.00
2019-04-20T05:07:37.066Z,436.00
2019-04-20T05:08:27.037Z,448.00
2019-04-20T05:09:20.443Z,456.00
2019-04-20T05:10:20.599Z,468.00
2019-04-20T05:11:19.600Z,476.00
2019-04-20T05:12:23.891Z,484.00
2019-04-20T05:13:19.919Z,496.00
2019-04-20T05:14:24.498Z,504.00
2019-04-20T05:15:34.893Z,512.00
2019-04-20T05:16:38.447Z,524.00
2019-04-20T05:17:40.678Z,532.00
2019-04-20T05:18:44.991Z,540.00
2019-04-20T05:19:41.371Z,548.00
2019-04-20T05:20:41.566Z,560.00
2019-04-20T05:21:39.425Z,568.00
2019-04-20T05:22:42.888Z,576.00
2019-04-20T05:23:31.919Z,584.00
2019-04-20T05:24:37.294Z,596.00
2019-04-20T05:25:37.774Z,600.00
2019-04-20T05:26:42.694Z,616.00
2019-04-20T05:27:39.114Z,620.00
2019-04-20T05:28:30.613Z,628.00
2019-04-20T05:29:25.390Z,636.00
2019-04-20T05:30:20.206Z,644.00
2019-04-20T05:31:24.485Z,652.00
2019-04-20T05:32:32.602Z,660.00
2019-04-20T05:33:28.080Z,664.00
2019-04-20T05:34:47.989Z,676.00
2019-04-20T05:35:40.742Z,684.00
2019-04-20T05:36:41.617Z,688.00
2019-04-20T05:38:03.580Z,696.00
2019-04-20T05:38:35.451Z,704.00
2019-04-20T05:39:39.908Z,708.00
2019-04-20T05:40:38.650Z,720.00
2019-04-20T05:41:39.094Z,724.00
2019-04-20T05:42:43.890Z,732.00
2019-04-20T05:43:36.262Z,740.00
2019-04-20T05:44:42.753Z,748.00
2019-04-20T05:45:34.017Z,752.00
2019-04-20T05:46:37.060Z,760.00
2019-04-20T05:47:38.544Z,764.00
2019-04-20T05:48:44.232Z,772.00
2019-04-20T05:49:34.915Z,780.00
2019-04-20T05:50:37.738Z,784.00
2019-04-20T05:51:39.702Z,792.00
2019-04-20T05:53:45.364Z,804.00
2019-04-20T05:55:38.923Z,812.00
2019-04-20T05:56:53.657Z,820.00
2019-04-20T05:57:48.174Z,828.00
2019-04-20T05:58:40.195Z,832.00
2019-04-20T05:59:47.060Z,836.00
2019-04-20T06:00:51.910Z,840.00
2019-04-20T06:02:42.161Z,852.00
2019-04-20T06:03:37.208Z,856.00
2019-04-20T06:04:58.784Z,860.00
2019-04-20T06:05:49.546Z,868.00
2019-04-20T06:06:45.195Z,876.00
2019-04-20T06:07:42.131Z,880.00
2019-04-20T06:08:51.096Z,884.00
2019-04-20T06:09:42.253Z,888.00
2019-04-20T06:10:45.105Z,892.00
2019-04-20T06:12:00.690Z,880.00
2019-04-20T06:12:39.971Z,888.00
2019-04-20T06:13:32.729Z,892.00
2019-04-20T06:14:39.508Z,896.00
2019-04-20T06:15:38.454Z,904.00
2019-04-20T06:16:46.877Z,904.00
2019-04-20T06:17:37.318Z,908.00
2019-04-20T06:18:33.649Z,912.00
2019-04-20T06:19:42.265Z,912.00
2019-04-20T06:20:41.134Z,916.00
2019-04-20T06:21:42.273Z,920.00
2019-04-20T06:22:41.717Z,928.00
2019-04-20T06:23:47.910Z,928.00
2019-04-20T06:24:49.447Z,932.00
2019-04-20T06:25:54.856Z,936.00
2019-04-20T06:26:52.007Z,944.00
2019-04-20T06:27:45.101Z,944.00
2019-04-20T06:28:37.698Z,944.00
2019-04-20T06:29:43.864Z,952.00
2019-04-20T06:30:40.585Z,952.00
2019-04-20T06:31:42.158Z,956.00
2019-04-20T06:32:44.226Z,960.00
2019-04-20T06:34:05.563Z,960.00
2019-04-20T06:34:55.900Z,964.00
2019-04-20T06:36:03.207Z,968.00
2019-04-20T06:36:47.462Z,968.00
2019-04-20T06:37:50.952Z,972.00
2019-04-20T06:38:58.764Z,972.00
2019-04-20T06:40:53.985Z,980.00
2019-04-20T06:42:02.268Z,980.00
2019-04-20T06:42:41.054Z,984.00
2019-04-20T06:43:50.511Z,984.00
2019-04-20T06:44:41.271Z,988.00
2019-04-20T06:45:51.090Z,992.00
2019-04-20T06:46:54.169Z,992.00
2019-04-20T06:47:47.286Z,996.00
2019-04-20T06:48:49.968Z,996.00
2019-04-20T06:49:38.095Z,1000.00
2019-04-20T06:50:39.037Z,1000.00
2019-04-20T06:51:42.716Z,1004.00
2019-04-20T06:52:36.802Z,1004.00
2019-04-20T06:53:45.568Z,1008.00
2019-04-20T06:54:43.182Z,1008.00
2019-04-20T06:56:42.554Z,1008.00
2019-04-20T06:57:58.145Z,1012.00
2019-04-20T06:58:53.181Z,1012.00
2019-04-20T06:59:42.959Z,1016.00
2019-04-20T07:00:42.042Z,1020.00
2019-04-20T07:01:51.498Z,1020.00
2019-04-20T07:02:44.621Z,1024.00
2019-04-20T07:04:14.575Z,1024.00
2019-04-20T07:04:52.107Z,1024.00
2019-04-20T07:05:49.248Z,1024.00
2019-04-20T07:06:50.689Z,1024.00
2019-04-20T07:07:47.525Z,1024.00
2019-04-20T07:09:55.885Z,1032.00
2019-04-20T07:10:43.927Z,1040.00
2019-04-20T07:11:43.331Z,1044.00
2019-04-20T07:12:43.614Z,1044.00
2019-04-20T07:13:35.929Z,1048.00
2019-04-20T07:14:36.686Z,1044.00
2019-04-20T07:15:45.162Z,1048.00
2019-04-20T07:16:44.855Z,1044.00
2019-04-20T07:19:40.242Z,1048.00
2019-04-20T07:20:51.674Z,1052.00
2019-04-20T07:22:00.131Z,1052.00
2019-04-20T07:22:49.264Z,1052.00
2019-04-20T07:23:51.367Z,1056.00
2019-04-20T07:24:48.640Z,1056.00
2019-04-20T07:25:52.854Z,1056.00
2019-04-20T07:26:50.183Z,1056.00
2019-04-20T07:27:48.979Z,1060.00
2019-04-20T07:28:46.903Z,1060.00
2019-04-20T07:29:47.456Z,1064.00
2019-04-20T07:30:46.372Z,1060.00
2019-04-20T07:31:40.970Z,1064.00
2019-04-20T07:32:52.515Z,1068.00
2019-04-20T07:33:49.605Z,1064.00
2019-04-20T07:34:48.814Z,1068.00
2019-04-20T07:35:40.425Z,1072.00
2019-04-20T07:36:52.314Z,1068.00
2019-04-20T07:38:49.903Z,1072.00
2019-04-20T07:39:52.325Z,1072.00
2019-04-20T07:40:44.452Z,1064.00
2019-04-20T07:41:50.835Z,1064.00
2019-04-20T07:42:48.684Z,1068.00
2019-04-20T07:43:57.474Z,1064.00
2019-04-20T07:44:48.775Z,1068.00
2019-04-20T07:45:40.184Z,1072.00
2019-04-20T07:46:56.382Z,1068.00
2019-04-20T07:47:49.153Z,1072.00
2019-04-20T07:48:42.360Z,1072.00
2019-04-20T07:49:42.065Z,1076.00
2019-04-20T07:50:37.425Z,1076.00
2019-04-20T07:51:30.145Z,1076.00
2019-04-20T07:52:35.189Z,1080.00
2019-04-20T07:53:36.342Z,1084.00
2019-04-20T07:55:06.018Z,1084.00
2019-04-20T07:55:52.383Z,1084.00
2019-04-20T07:56:50.501Z,1080.00
2019-04-20T07:58:34.844Z,1088.00
2019-04-20T07:59:39.748Z,1088.00
2019-04-20T08:00:56.136Z,1088.00
2019-04-20T08:01:54.757Z,1092.00
2019-04-20T08:02:52.009Z,1092.00
2019-04-20T08:03:45.898Z,1092.00
2019-04-20T08:04:36.477Z,1096.00
2019-04-20T08:05:36.368Z,1096.00
2019-04-20T08:06:32.136Z,1100.00
2019-04-20T08:07:36.757Z,1100.00
2019-04-20T08:08:39.981Z,1096.00
2019-04-20T08:09:37.376Z,1096.00
2019-04-20T08:10:47.182Z,1100.00
2019-04-20T08:11:53.725Z,1104.00
2019-04-20T08:12:51.440Z,1104.00
2019-04-20T08:13:51.474Z,1104.00
2019-04-20T08:14:53.965Z,1104.00
2019-04-20T08:15:49.479Z,1108.00
2019-04-20T08:17:05.348Z,1112.00
2019-04-20T08:18:51.321Z,1112.00
2019-04-20T08:19:46.731Z,1116.00
2019-04-20T08:20:45.059Z,1116.00
2019-04-20T08:21:47.310Z,1112.00
2019-04-20T08:22:49.188Z,1120.00
2019-04-20T08:23:47.302Z,1116.00
2019-04-20T08:24:42.884Z,1120.00
2019-04-20T08:25:36.167Z,1120.00
2019-04-20T08:26:31.079Z,1128.00
2019-04-20T08:27:25.732Z,1132.00
2019-04-20T08:28:35.895Z,1132.00
2019-04-20T08:29:37.862Z,1132.00
2019-04-20T08:30:44.066Z,1132.00
2019-04-20T08:31:40.724Z,1136.00
2019-04-20T08:32:41.257Z,1136.00
2019-04-20T08:33:55.476Z,1140.00
2019-04-20T08:34:50.389Z,1144.00
2019-04-20T08:36:47.773Z,1148.00
2019-04-20T08:37:48.902Z,1148.00
2019-04-20T08:39:08.273Z,1152.00
2019-04-20T08:40:47.907Z,1156.00
2019-04-20T08:41:50.339Z,1156.00
2019-04-20T08:42:59.768Z,1160.00
2019-04-20T08:45:49.206Z,1164.00
2019-04-20T08:46:53.684Z,1164.00
2019-04-20T08:47:56.384Z,1172.00
2019-04-20T08:48:46.800Z,1172.00
2019-04-20T08:49:51.885Z,1172.00
2019-04-20T08:50:45.193Z,1172.00
2019-04-20T08:51:55.631Z,1180.00
2019-04-20T08:53:50.741Z,1184.00
2019-04-20T08:54:37.950Z,1184.00
2019-04-20T08:55:41.577Z,1188.00
2019-04-20T08:56:35.123Z,1188.00
2019-04-20T08:57:27.077Z,1188.00
2019-04-20T08:58:27.273Z,1192.00
2019-04-20T08:59:26.394Z,1196.00
2019-04-20T09:00:34.813Z,1196.00
2019-04-20T09:01:29.082Z,1204.00
2019-04-20T09:02:27.967Z,1200.00
2019-04-20T09:03:31.671Z,1208.00
2019-04-20T09:04:37.128Z,1208.00
2019-04-20T09:05:40.032Z,1212.00
2019-04-20T09:06:41.516Z,1216.00
2019-04-20T09:07:30.228Z,1216.00
2019-04-20T09:08:37.258Z,1220.00
2019-04-20T09:09:49.960Z,1224.00
2019-04-20T09:10:45.322Z,1228.00
2019-04-20T09:11:51.616Z,1228.00
2019-04-20T09:12:40.917Z,1232.00
2019-04-20T09:13:35.324Z,1232.00
2019-04-20T09:14:28.274Z,1232.00
2019-04-20T09:15:27.838Z,1236.00
2019-04-20T09:16:37.073Z,1240.00
2019-04-20T09:17:36.696Z,1240.00
2019-04-20T09:18:36.683Z,1244.00
2019-04-20T09:19:36.783Z,1244.00
2019-04-20T09:20:36.240Z,1248.00
2019-04-20T09:21:35.599Z,1252.00
2019-04-20T09:22:38.795Z,1256.00
2019-04-20T09:23:42.306Z,1260.00
2019-04-20T09:24:51.479Z,1264.00
2019-04-20T09:25:57.726Z,1264.00
2019-04-20T09:26:43.356Z,1268.00
2019-04-20T09:27:34.791Z,1272.00
2019-04-20T09:28:36.363Z,1276.00
2019-04-20T09:29:37.227Z,1276.00
2019-04-20T09:30:39.414Z,1280.00
2019-04-20T09:31:40.117Z,1284.00
2019-04-20T09:32:45.306Z,1284.00
2019-04-20T09:33:49.681Z,1292.00
2019-04-20T09:34:49.096Z,1292.00
2019-04-20T09:35:43.202Z,1300.00
2019-04-20T09:36:42.029Z,1300.00
2019-04-20T09:37:47.280Z,1304.00
2019-04-20T09:38:40.848Z,1312.00
2019-04-20T09:39:35.737Z,1308.00
2019-04-20T09:40:46.047Z,1316.00
2019-04-20T09:41:48.998Z,1320.00
2019-04-20T09:42:28.136Z,1324.00
2019-04-20T09:43:28.098Z,1324.00
2019-04-20T09:44:33.639Z,1328.00
2019-04-20T09:45:37.378Z,1332.00
2019-04-20T09:46:30.890Z,1340.00
2019-04-20T09:47:36.844Z,1344.00
2019-04-20T09:48:38.158Z,1352.00
2019-04-20T09:49:38.748Z,1356.00
2019-04-20T09:50:45.010Z,1360.00
2019-04-20T09:51:46.708Z,1364.00
2019-04-20T09:52:48.197Z,1368.00
2019-04-20T09:53:41.939Z,1372.00
2019-04-20T09:54:50.017Z,1376.00
2019-04-20T09:55:44.555Z,1384.00
2019-04-20T09:56:49.691Z,1388.00
2019-04-20T09:57:43.995Z,1392.00
2019-04-20T09:58:53.386Z,1396.00
2019-04-20T09:59:44.835Z,1400.00
2019-04-20T10:00:43.804Z,1404.00
2019-04-20T10:01:32.639Z,1408.00
2019-04-20T10:02:31.528Z,1416.00
2019-04-20T10:03:29.061Z,1424.00
2019-04-20T10:04:29.116Z,1428.00
2019-04-20T10:05:29.576Z,1432.00
2019-04-20T10:06:33.848Z,1436.00
2019-04-20T10:07:33.444Z,1440.00
2019-04-20T10:08:29.336Z,1444.00
2019-04-20T10:09:34.463Z,1452.00
2019-04-20T10:10:33.947Z,1456.00
2019-04-20T10:11:29.828Z,1464.00
2019-04-20T10:12:29.393Z,1472.00
2019-04-20T10:13:30.044Z,1476.00
2019-04-20T10:14:28.998Z,1480.00
2019-04-20T10:15:31.052Z,1480.00
2019-04-20T10:16:29.445Z,1480.00
2019-04-20T10:17:31.663Z,1488.00
2019-04-20T10:18:30.006Z,1488.00
2019-04-20T10:19:33.883Z,1496.00
2019-04-20T10:20:32.811Z,1504.00
2019-04-20T10:21:29.954Z,1508.00
2019-04-20T10:22:29.211Z,1516.00
2019-04-20T10:23:30.301Z,1520.00
2019-04-20T10:24:30.526Z,1528.00
2019-04-20T10:25:30.782Z,1532.00
2019-04-20T10:26:30.263Z,1540.00
2019-04-20T10:27:30.687Z,1544.00
2019-04-20T10:29:29.394Z,1560.00
2019-04-20T10:30:30.577Z,1564.00
2019-04-20T10:31:30.687Z,1568.00
2019-04-20T10:32:36.303Z,1572.00
2019-04-20T10:34:30.567Z,1584.00
2019-04-20T10:35:29.802Z,1592.00
2019-04-20T10:36:29.847Z,1596.00
2019-04-20T10:37:29.676Z,1608.00
2019-04-20T10:39:30.795Z,1616.00
2019-04-20T10:40:45.015Z,1620.00
2019-04-20T10:41:40.911Z,1624.00
2019-04-20T10:42:30.200Z,1624.00
2019-04-20T10:43:30.251Z,1632.00
2019-04-20T10:44:29.914Z,1648.00
2019-04-20T10:45:30.895Z,1656.00
2019-04-20T10:46:31.103Z,1656.00
2019-04-20T10:47:30.019Z,1660.00
2019-04-20T10:48:32.012Z,1660.00
2019-04-20T10:49:31.182Z,1664.00
2019-04-20T10:50:32.151Z,1664.00
2019-04-20T10:51:31.439Z,1664.00
2019-04-20T10:52:30.186Z,1668.00
2019-04-20T10:53:30.273Z,1672.00
2019-04-20T10:54:30.606Z,1680.00
2019-04-20T10:55:31.435Z,1688.00
2019-04-20T10:56:31.661Z,1700.00
2019-04-20T10:57:31.250Z,1716.00
2019-04-20T10:58:31.488Z,1724.00
2019-04-20T10:59:31.751Z,1728.00
2019-04-20T11:00:31.383Z,1740.00
2019-04-20T11:01:31.651Z,1744.00
2019-04-20T11:02:31.840Z,1752.00
2019-04-20T11:03:30.621Z,1756.00
2019-04-20T11:04:30.906Z,1768.00
2019-04-20T11:05:30.761Z,1776.00
2019-04-20T11:06:30.673Z,1792.00
2019-04-20T11:07:30.753Z,1800.00
2019-04-20T11:08:30.793Z,1820.00
2019-04-20T11:09:30.829Z,1828.00
2019-04-20T11:10:46.784Z,1828.00
2019-04-20T11:11:32.482Z,1840.00
2019-04-20T11:12:30.945Z,1852.00
2019-04-20T11:13:30.965Z,1864.00
2019-04-20T11:14:34.540Z,1880.00
2019-04-20T11:15:32.405Z,1892.00
2019-04-20T11:16:31.028Z,1896.00
2019-04-20T11:17:31.794Z,1924.00
2019-04-20T11:18:31.444Z,1944.00
2019-04-20T11:19:31.585Z,1968.00
2019-04-20T11:20:31.177Z,1984.00
2019-04-20T11:21:32.347Z,2004.00
2019-04-20T11:22:32.494Z,2024.00
2019-04-20T11:23:32.114Z,2036.00
2019-04-20T11:25:32.432Z,2068.00
2019-04-20T11:26:32.175Z,2084.00
2019-04-20T11:27:32.200Z,2096.00
2019-04-20T11:28:32.351Z,2116.00
2019-04-20T11:29:31.903Z,2128.00
2019-04-20T11:30:32.165Z,2140.00
2019-04-20T11:31:37.345Z,2160.00
2019-04-20T11:32:31.926Z,2176.00
2019-04-20T11:33:32.058Z,2192.00
2019-04-20T11:34:35.343Z,2216.00
2019-04-20T11:35:37.290Z,2232.00
2019-04-20T11:36:32.991Z,2256.00
2019-04-20T11:37:33.120Z,2276.00
2019-04-20T11:38:33.146Z,2296.00
2019-04-20T11:39:32.874Z,2312.00
2019-04-20T11:42:32.032Z,2364.00
2019-04-20T11:43:31.987Z,2380.00
2019-04-20T11:44:33.262Z,2400.00
2019-04-20T11:46:32.442Z,2440.00
2019-04-20T11:47:33.575Z,2460.00
2019-04-20T11:48:33.731Z,2480.00
2019-04-20T11:49:33.367Z,2492.00
2019-04-20T11:50:33.620Z,2508.00
2019-04-20T11:51:33.798Z,2524.00
2019-04-20T11:52:37.255Z,2532.00
2019-04-20T11:54:32.693Z,2552.00
2019-04-20T11:55:32.373Z,2572.00
2019-04-20T11:56:36.597Z,2592.00
2019-04-20T11:57:33.422Z,2608.00
2019-04-20T11:58:33.179Z,2628.00
2019-04-20T11:59:32.809Z,2652.00
2019-04-20T12:00:34.271Z,2676.00
2019-04-20T12:01:37.070Z,2700.00
2019-04-20T12:02:38.271Z,2720.00
2019-04-20T12:03:44.483Z,2740.00
2019-04-20T12:04:40.684Z,2760.00
2019-04-20T12:05:40.802Z,2784.00
2019-04-20T12:06:32.821Z,2804.00
2019-04-20T12:07:35.222Z,2828.00
2019-04-20T12:08:36.060Z,2852.00
2019-04-20T12:09:33.504Z,2872.00
2019-04-20T12:10:33.173Z,2888.00
2019-04-20T12:11:45.368Z,2908.00
2019-04-20T12:12:41.819Z,2932.00
2019-04-20T12:13:34.414Z,2952.00
2019-04-20T12:14:33.094Z,2968.00
2019-04-20T12:15:36.475Z,2992.00
2019-04-20T12:16:33.162Z,3012.00
2019-04-20T12:17:33.519Z,3036.00
2019-04-20T12:18:33.685Z,3052.00
2019-04-20T12:19:36.018Z,3064.00
2019-04-20T12:20:34.495Z,3080.00
2019-04-20T12:21:33.282Z,3096.00
2019-04-20T12:22:34.528Z,3120.00
2019-04-20T12:23:34.006Z,3132.00
2019-04-20T12:24:33.389Z,3152.00
2019-04-20T12:25:35.907Z,3160.00
2019-04-20T12:26:33.460Z,3172.00
2019-04-20T12:27:34.518Z,3184.00
2019-04-20T12:28:33.737Z,3208.00
2019-04-20T12:29:34.063Z,3240.00
2019-04-20T12:30:33.748Z,3276.00
2019-04-20T12:31:33.640Z,3308.00
2019-04-20T12:32:39.210Z,3328.00
2019-04-20T12:33:34.538Z,3344.00
2019-04-20T12:34:34.988Z,3360.00
2019-04-20T12:35:34.194Z,3376.00
2019-04-20T12:36:35.227Z,3400.00
2019-04-20T12:37:34.280Z,3428.00
2019-04-20T12:38:34.887Z,3496.00
2019-04-20T12:39:35.266Z,3640.00
2019-04-20T12:40:34.169Z,3760.00
2019-04-20T12:41:41.507Z,3840.00
2019-04-20T12:42:34.872Z,3920.00
2019-04-20T12:44:35.403Z,4084.00
2019-04-20T12:45:35.564Z,4304.00
2019-04-20T12:46:35.924Z,5348.00
2019-04-20T12:47:35.387Z,6316.00
2019-04-20T12:48:35.463Z,6900.00
2019-04-20T12:49:34.270Z,6764.00
2019-04-20T12:50:35.298Z,6560.00
2019-04-20T12:52:34.696Z,9328.00
2019-04-20T12:53:34.973Z,10568.00
2019-04-20T12:54:34.508Z,10356.00
2019-04-20T12:55:34.771Z,9872.00
2019-04-20T12:56:34.862Z,9648.00
2019-04-20T12:57:34.607Z,11128.00
2019-04-20T12:58:34.697Z,13580.00
2019-04-20T12:59:35.773Z,13552.00
2019-04-20T13:00:35.239Z,12236.00
2019-04-20T13:01:35.442Z,13000.00
2019-04-20T13:02:35.504Z,13704.00
2019-04-20T13:03:35.218Z,13624.00
2019-04-20T13:05:36.021Z,15212.00
2019-04-20T13:07:40.193Z,17696.00
2019-04-20T13:08:39.127Z,18316.00
2019-04-20T13:09:34.990Z,18816.00